sensor_id;sensor_type;location;lat;lon;timestamp;temperature;humidity
68450;SHT30;67758;39.572;2.652;2023-05-07T00:02:04;21.67;55.46
68450;SHT30;67758;39.572;2.652;2023-05-07T00:04:29;21.62;55.06
68450;SHT30;67758;39.572;2.652;2023-05-07T00:07:01;21.66;55.05
68450;SHT30;67758;39.572;2.652;2023-05-07T00:09:27;21.69;54.97
68450;SHT30;67758;39.572;2.652;2023-05-07T00:11:52;21.67;54.79
68450;SHT30;67758;39.572;2.652;2023-05-07T00:14:18;21.59;54.65
68450;SHT30;67758;39.572;2.652;2023-05-07T00:16:44;21.55;54.72
68450;SHT30;67758;39.572;2.652;2023-05-07T00:19:09;21.46;54.51
68450;SHT30;67758;39.572;2.652;2023-05-07T00:21:35;21.49;54.55
68450;SHT30;67758;39.572;2.652;2023-05-07T00:24:01;21.45;53.96
68450;SHT30;67758;39.572;2.652;2023-05-07T00:26:26;21.46;53.82
68450;SHT30;67758;39.572;2.652;2023-05-07T00:28:52;21.51;52.34
68450;SHT30;67758;39.572;2.652;2023-05-07T00:31:17;21.48;52.79
68450;SHT30;67758;39.572;2.652;2023-05-07T00:33:43;21.58;53.30
68450;SHT30;67758;39.572;2.652;2023-05-07T00:36:09;21.62;52.34
68450;SHT30;67758;39.572;2.652;2023-05-07T00:38:34;21.59;49.35
68450;SHT30;67758;39.572;2.652;2023-05-07T00:41:00;21.61;48.74
68450;SHT30;67758;39.572;2.652;2023-05-07T00:43:27;21.67;51.32
68450;SHT30;67758;39.572;2.652;2023-05-07T00:45:53;21.63;48.30
68450;SHT30;67758;39.572;2.652;2023-05-07T00:48:20;21.58;47.50
68450;SHT30;67758;39.572;2.652;2023-05-07T00:50:46;21.61;49.90
68450;SHT30;67758;39.572;2.652;2023-05-07T00:53:12;21.59;48.34
68450;SHT30;67758;39.572;2.652;2023-05-07T00:55:40;21.49;47.61
68450;SHT30;67758;39.572;2.652;2023-05-07T00:58:06;21.39;47.33
68450;SHT30;67758;39.572;2.652;2023-05-07T01:00:32;21.32;47.68
68450;SHT30;67758;39.572;2.652;2023-05-07T01:02:58;21.25;48.04
68450;SHT30;67758;39.572;2.652;2023-05-07T01:05:24;21.20;49.69
68450;SHT30;67758;39.572;2.652;2023-05-07T01:07:53;21.14;50.84
68450;SHT30;67758;39.572;2.652;2023-05-07T01:10:19;21.04;52.05
68450;SHT30;67758;39.572;2.652;2023-05-07T01:12:46;20.98;52.37
68450;SHT30;67758;39.572;2.652;2023-05-07T01:15:13;20.97;52.56
68450;SHT30;67758;39.572;2.652;2023-05-07T01:17:40;20.85;52.90
68450;SHT30;67758;39.572;2.652;2023-05-07T01:20:07;20.83;52.96
68450;SHT30;67758;39.572;2.652;2023-05-07T01:22:37;20.79;53.12
68450;SHT30;67758;39.572;2.652;2023-05-07T01:25:04;20.77;53.21
68450;SHT30;67758;39.572;2.652;2023-05-07T01:27:31;20.70;54.22
68450;SHT30;67758;39.572;2.652;2023-05-07T01:29:58;20.61;54.85
68450;SHT30;67758;39.572;2.652;2023-05-07T01:32:40;20.56;55.52
68450;SHT30;67758;39.572;2.652;2023-05-07T01:35:07;20.50;55.55
68450;SHT30;67758;39.572;2.652;2023-05-07T01:37:35;20.43;55.01
68450;SHT30;67758;39.572;2.652;2023-05-07T01:40:02;20.42;54.80
68450;SHT30;67758;39.572;2.652;2023-05-07T01:42:29;20.39;54.76
68450;SHT30;67758;39.572;2.652;2023-05-07T01:44:55;20.37;54.85
68450;SHT30;67758;39.572;2.652;2023-05-07T01:47:21;20.34;55.30
68450;SHT30;67758;39.572;2.652;2023-05-07T01:49:47;20.26;56.32
68450;SHT30;67758;39.572;2.652;2023-05-07T01:52:13;20.22;56.86
68450;SHT30;67758;39.572;2.652;2023-05-07T01:54:38;20.20;57.37
68450;SHT30;67758;39.572;2.652;2023-05-07T01:57:04;20.18;58.25
68450;SHT30;67758;39.572;2.652;2023-05-07T01:59:30;20.26;59.70
68450;SHT30;67758;39.572;2.652;2023-05-07T02:01:55;20.19;60.37
68450;SHT30;67758;39.572;2.652;2023-05-07T02:04:21;20.12;60.78
68450;SHT30;67758;39.572;2.652;2023-05-07T02:06:47;20.10;61.00
68450;SHT30;67758;39.572;2.652;2023-05-07T02:09:13;20.16;60.98
68450;SHT30;67758;39.572;2.652;2023-05-07T02:11:40;20.12;60.92
68450;SHT30;67758;39.572;2.652;2023-05-07T02:14:05;20.19;61.06
68450;SHT30;67758;39.572;2.652;2023-05-07T02:16:31;20.26;61.11
68450;SHT30;67758;39.572;2.652;2023-05-07T02:18:57;20.30;61.47
68450;SHT30;67758;39.572;2.652;2023-05-07T02:21:24;20.39;61.48
68450;SHT30;67758;39.572;2.652;2023-05-07T02:23:50;20.46;61.32
68450;SHT30;67758;39.572;2.652;2023-05-07T02:26:16;20.51;61.13
68450;SHT30;67758;39.572;2.652;2023-05-07T02:28:41;20.40;61.49
68450;SHT30;67758;39.572;2.652;2023-05-07T02:31:07;20.34;61.94
68450;SHT30;67758;39.572;2.652;2023-05-07T02:33:33;20.33;62.31
68450;SHT30;67758;39.572;2.652;2023-05-07T02:36:10;20.28;62.44
68450;SHT30;67758;39.572;2.652;2023-05-07T02:38:36;20.20;62.45
68450;SHT30;67758;39.572;2.652;2023-05-07T02:41:01;20.15;62.73
68450;SHT30;67758;39.572;2.652;2023-05-07T02:43:27;20.12;62.74
68450;SHT30;67758;39.572;2.652;2023-05-07T02:46:04;20.06;62.68
68450;SHT30;67758;39.572;2.652;2023-05-07T02:48:29;19.99;62.73
68450;SHT30;67758;39.572;2.652;2023-05-07T02:50:55;19.98;62.77
68450;SHT30;67758;39.572;2.652;2023-05-07T02:53:21;19.89;62.82
68450;SHT30;67758;39.572;2.652;2023-05-07T02:55:46;19.89;62.93
68450;SHT30;67758;39.572;2.652;2023-05-07T02:58:12;19.86;63.05
68450;SHT30;67758;39.572;2.652;2023-05-07T03:00:37;19.82;63.22
68450;SHT30;67758;39.572;2.652;2023-05-07T03:03:03;19.83;63.36
68450;SHT30;67758;39.572;2.652;2023-05-07T03:05:29;19.86;63.44
68450;SHT30;67758;39.572;2.652;2023-05-07T03:07:54;19.75;63.85
68450;SHT30;67758;39.572;2.652;2023-05-07T03:10:20;19.77;64.18
68450;SHT30;67758;39.572;2.652;2023-05-07T03:12:45;19.83;64.63
68450;SHT30;67758;39.572;2.652;2023-05-07T03:15:11;19.93;64.49
68450;SHT30;67758;39.572;2.652;2023-05-07T03:17:38;20.04;64.50
68450;SHT30;67758;39.572;2.652;2023-05-07T03:20:04;20.09;64.62
68450;SHT30;67758;39.572;2.652;2023-05-07T03:22:30;20.12;64.89
68450;SHT30;67758;39.572;2.652;2023-05-07T03:24:56;20.04;65.47
68450;SHT30;67758;39.572;2.652;2023-05-07T03:27:21;20.06;65.98
68450;SHT30;67758;39.572;2.652;2023-05-07T03:29:47;20.05;66.91
68450;SHT30;67758;39.572;2.652;2023-05-07T03:32:13;19.93;67.83
68450;SHT30;67758;39.572;2.652;2023-05-07T03:34:38;19.95;67.76
68450;SHT30;67758;39.572;2.652;2023-05-07T03:37:04;19.93;68.33
68450;SHT30;67758;39.572;2.652;2023-05-07T03:39:29;19.93;69.10
68450;SHT30;67758;39.572;2.652;2023-05-07T03:41:57;19.88;69.92
68450;SHT30;67758;39.572;2.652;2023-05-07T03:44:23;19.82;70.06
68450;SHT30;67758;39.572;2.652;2023-05-07T03:46:48;19.77;70.71
68450;SHT30;67758;39.572;2.652;2023-05-07T03:49:14;19.88;70.61
68450;SHT30;67758;39.572;2.652;2023-05-07T03:51:40;19.77;71.60
68450;SHT30;67758;39.572;2.652;2023-05-07T03:54:05;19.62;72.48
68450;SHT30;67758;39.572;2.652;2023-05-07T03:56:32;19.61;72.65
68450;SHT30;67758;39.572;2.652;2023-05-07T03:58:58;19.54;73.27
68450;SHT30;67758;39.572;2.652;2023-05-07T04:01:23;19.51;73.49
68450;SHT30;67758;39.572;2.652;2023-05-07T04:03:49;19.41;73.92
68450;SHT30;67758;39.572;2.652;2023-05-07T04:06:18;19.43;74.05
68450;SHT30;67758;39.572;2.652;2023-05-07T04:08:43;19.41;74.09
68450;SHT30;67758;39.572;2.652;2023-05-07T04:11:10;19.41;74.24
68450;SHT30;67758;39.572;2.652;2023-05-07T04:13:36;19.48;73.83
68450;SHT30;67758;39.572;2.652;2023-05-07T04:16:03;19.58;73.45
68450;SHT30;67758;39.572;2.652;2023-05-07T04:18:29;19.58;73.48
68450;SHT30;67758;39.572;2.652;2023-05-07T04:20:55;19.68;73.15
68450;SHT30;67758;39.572;2.652;2023-05-07T04:23:20;19.69;73.27
68450;SHT30;67758;39.572;2.652;2023-05-07T04:25:46;19.71;72.95
68450;SHT30;67758;39.572;2.652;2023-05-07T04:28:12;19.74;73.15
68450;SHT30;67758;39.572;2.652;2023-05-07T04:30:38;19.75;73.22
68450;SHT30;67758;39.572;2.652;2023-05-07T04:33:04;19.67;73.52
68450;SHT30;67758;39.572;2.652;2023-05-07T04:35:30;19.72;73.31
68450;SHT30;67758;39.572;2.652;2023-05-07T04:37:56;19.62;73.97
68450;SHT30;67758;39.572;2.652;2023-05-07T04:40:21;19.57;74.32
68450;SHT30;67758;39.572;2.652;2023-05-07T04:42:47;19.44;74.97
68450;SHT30;67758;39.572;2.652;2023-05-07T04:45:12;19.55;74.64
68450;SHT30;67758;39.572;2.652;2023-05-07T04:47:38;19.65;74.22
68450;SHT30;67758;39.572;2.652;2023-05-07T04:50:05;19.46;74.95
68450;SHT30;67758;39.572;2.652;2023-05-07T04:52:31;19.35;75.38
68450;SHT30;67758;39.572;2.652;2023-05-07T04:54:59;19.38;75.16
68450;SHT30;67758;39.572;2.652;2023-05-07T04:57:25;19.31;75.30
68450;SHT30;67758;39.572;2.652;2023-05-07T04:59:52;19.24;75.41
68450;SHT30;67758;39.572;2.652;2023-05-07T05:02:17;19.44;74.74
68450;SHT30;67758;39.572;2.652;2023-05-07T05:04:43;19.48;74.47
68450;SHT30;67758;39.572;2.652;2023-05-07T05:07:08;19.46;74.20
68450;SHT30;67758;39.572;2.652;2023-05-07T05:09:34;19.38;74.32
68450;SHT30;67758;39.572;2.652;2023-05-07T05:12:00;19.34;74.47
68450;SHT30;67758;39.572;2.652;2023-05-07T05:14:25;19.32;74.55
68450;SHT30;67758;39.572;2.652;2023-05-07T05:16:51;19.48;74.12
68450;SHT30;67758;39.572;2.652;2023-05-07T05:19:17;19.50;74.11
68450;SHT30;67758;39.572;2.652;2023-05-07T05:21:42;19.48;74.11
68450;SHT30;67758;39.572;2.652;2023-05-07T05:24:08;19.37;74.65
68450;SHT30;67758;39.572;2.652;2023-05-07T05:26:34;19.28;74.85
68450;SHT30;67758;39.572;2.652;2023-05-07T05:29:00;19.10;75.19
68450;SHT30;67758;39.572;2.652;2023-05-07T05:31:26;19.10;75.20
68450;SHT30;67758;39.572;2.652;2023-05-07T05:33:51;19.16;75.09
68450;SHT30;67758;39.572;2.652;2023-05-07T05:36:17;19.14;75.15
68450;SHT30;67758;39.572;2.652;2023-05-07T05:38:42;19.18;75.15
68450;SHT30;67758;39.572;2.652;2023-05-07T05:41:09;19.21;75.06
68450;SHT30;67758;39.572;2.652;2023-05-07T05:43:35;19.20;75.03
68450;SHT30;67758;39.572;2.652;2023-05-07T05:46:00;19.24;75.12
68450;SHT30;67758;39.572;2.652;2023-05-07T05:48:26;19.23;75.62
68450;SHT30;67758;39.572;2.652;2023-05-07T05:50:52;19.30;75.84
68450;SHT30;67758;39.572;2.652;2023-05-07T05:53:17;19.53;75.57
68450;SHT30;67758;39.572;2.652;2023-05-07T05:55:43;19.65;75.28
68450;SHT30;67758;39.572;2.652;2023-05-07T05:58:09;19.69;74.96
68450;SHT30;67758;39.572;2.652;2023-05-07T06:00:35;19.74;75.23
68450;SHT30;67758;39.572;2.652;2023-05-07T06:03:00;19.62;76.33
68450;SHT30;67758;39.572;2.652;2023-05-07T06:05:26;19.64;76.30
68450;SHT30;67758;39.572;2.652;2023-05-07T06:07:52;19.75;75.82
68450;SHT30;67758;39.572;2.652;2023-05-07T06:10:17;19.81;75.55
68450;SHT30;67758;39.572;2.652;2023-05-07T06:12:43;19.74;76.04
68450;SHT30;67758;39.572;2.652;2023-05-07T06:15:10;19.88;75.17
68450;SHT30;67758;39.572;2.652;2023-05-07T06:17:35;19.89;75.43
68450;SHT30;67758;39.572;2.652;2023-05-07T06:20:02;19.88;75.30
68450;SHT30;67758;39.572;2.652;2023-05-07T06:22:28;19.93;75.15
68450;SHT30;67758;39.572;2.652;2023-05-07T06:24:54;20.00;74.68
68450;SHT30;67758;39.572;2.652;2023-05-07T06:27:19;19.93;74.68
68450;SHT30;67758;39.572;2.652;2023-05-07T06:29:47;20.06;74.34
68450;SHT30;67758;39.572;2.652;2023-05-07T06:32:13;20.19;73.92
68450;SHT30;67758;39.572;2.652;2023-05-07T06:34:40;20.26;73.72
68450;SHT30;67758;39.572;2.652;2023-05-07T06:37:06;20.34;73.49
68450;SHT30;67758;39.572;2.652;2023-05-07T06:39:32;20.36;73.53
68450;SHT30;67758;39.572;2.652;2023-05-07T06:42:00;20.49;73.14
68450;SHT30;67758;39.572;2.652;2023-05-07T06:44:27;20.57;73.13
68450;SHT30;67758;39.572;2.652;2023-05-07T06:46:52;20.49;73.50
68450;SHT30;67758;39.572;2.652;2023-05-07T06:49:18;20.50;73.37
68450;SHT30;67758;39.572;2.652;2023-05-07T06:51:44;20.59;73.08
68450;SHT30;67758;39.572;2.652;2023-05-07T06:54:09;20.66;72.50
68450;SHT30;67758;39.572;2.652;2023-05-07T06:56:35;20.74;72.00
68450;SHT30;67758;39.572;2.652;2023-05-07T06:59:02;20.87;71.43
68450;SHT30;67758;39.572;2.652;2023-05-07T07:01:28;20.90;70.92
68450;SHT30;67758;39.572;2.652;2023-05-07T07:03:54;20.85;70.32
68450;SHT30;67758;39.572;2.652;2023-05-07T07:06:20;21.11;69.98
68450;SHT30;67758;39.572;2.652;2023-05-07T07:08:47;21.11;69.52
68450;SHT30;67758;39.572;2.652;2023-05-07T07:11:15;21.24;69.20
68450;SHT30;67758;39.572;2.652;2023-05-07T07:13:41;21.18;68.93
68450;SHT30;67758;39.572;2.652;2023-05-07T07:16:08;21.11;68.92
68450;SHT30;67758;39.572;2.652;2023-05-07T07:18:34;21.15;68.49
68450;SHT30;67758;39.572;2.652;2023-05-07T07:21:01;21.32;68.08
68450;SHT30;67758;39.572;2.652;2023-05-07T07:23:27;21.44;67.49
68450;SHT30;67758;39.572;2.652;2023-05-07T07:25:58;21.42;68.16
68450;SHT30;67758;39.572;2.652;2023-05-07T07:28:25;21.65;68.01
68450;SHT30;67758;39.572;2.652;2023-05-07T07:30:55;21.65;67.14
68450;SHT30;67758;39.572;2.652;2023-05-07T07:33:24;21.79;66.01
68450;SHT30;67758;39.572;2.652;2023-05-07T07:35:51;21.96;65.35
68450;SHT30;67758;39.572;2.652;2023-05-07T07:38:17;21.99;64.75
68450;SHT30;67758;39.572;2.652;2023-05-07T07:40:43;22.04;64.36
68450;SHT30;67758;39.572;2.652;2023-05-07T07:43:09;22.18;64.51
68450;SHT30;67758;39.572;2.652;2023-05-07T07:45:37;22.30;63.91
68450;SHT30;67758;39.572;2.652;2023-05-07T07:48:04;22.23;62.76
68450;SHT30;67758;39.572;2.652;2023-05-07T07:50:55;22.23;62.64
68450;SHT30;67758;39.572;2.652;2023-05-07T07:53:30;22.40;62.88
68450;SHT30;67758;39.572;2.652;2023-05-07T07:56:01;22.51;63.92
68450;SHT30;67758;39.572;2.652;2023-05-07T07:58:34;22.61;63.30
68450;SHT30;67758;39.572;2.652;2023-05-07T08:01:29;22.71;61.93
68450;SHT30;67758;39.572;2.652;2023-05-07T08:03:56;22.72;62.34
68450;SHT30;67758;39.572;2.652;2023-05-07T08:06:24;22.90;62.17
68450;SHT30;67758;39.572;2.652;2023-05-07T08:08:53;23.06;61.59
68450;SHT30;67758;39.572;2.652;2023-05-07T08:11:41;23.20;61.26
68450;SHT30;67758;39.572;2.652;2023-05-07T08:14:09;23.05;61.03
68450;SHT30;67758;39.572;2.652;2023-05-07T08:20:20;23.15;60.69
68450;SHT30;67758;39.572;2.652;2023-05-07T08:25:32;23.06;57.51
68450;SHT30;67758;39.572;2.652;2023-05-07T08:28:16;23.20;58.40
68450;SHT30;67758;39.572;2.652;2023-05-07T08:30:41;23.29;56.77
68450;SHT30;67758;39.572;2.652;2023-05-07T08:33:09;23.56;56.60
68450;SHT30;67758;39.572;2.652;2023-05-07T08:35:35;23.80;56.04
68450;SHT30;67758;39.572;2.652;2023-05-07T08:38:02;23.89;54.44
68450;SHT30;67758;39.572;2.652;2023-05-07T08:40:28;23.86;53.22
68450;SHT30;67758;39.572;2.652;2023-05-07T08:42:55;24.24;53.32
68450;SHT30;67758;39.572;2.652;2023-05-07T08:45:22;24.41;54.01
68450;SHT30;67758;39.572;2.652;2023-05-07T08:47:51;24.61;51.84
68450;SHT30;67758;39.572;2.652;2023-05-07T08:50:18;24.52;52.44
68450;SHT30;67758;39.572;2.652;2023-05-07T08:52:45;24.67;50.75
68450;SHT30;67758;39.572;2.652;2023-05-07T08:55:12;24.49;50.72
68450;SHT30;67758;39.572;2.652;2023-05-07T08:57:38;24.55;52.24
68450;SHT30;67758;39.572;2.652;2023-05-07T09:00:05;24.27;50.74
68450;SHT30;67758;39.572;2.652;2023-05-07T09:02:33;24.42;50.94
68450;SHT30;67758;39.572;2.652;2023-05-07T09:05:00;24.20;50.26
68450;SHT30;67758;39.572;2.652;2023-05-07T09:07:26;24.00;51.25
68450;SHT30;67758;39.572;2.652;2023-05-07T09:09:52;23.92;53.06
68450;SHT30;67758;39.572;2.652;2023-05-07T09:12:19;23.96;51.56
68450;SHT30;67758;39.572;2.652;2023-05-07T09:14:45;23.84;50.43
68450;SHT30;67758;39.572;2.652;2023-05-07T09:17:11;23.90;52.14
68450;SHT30;67758;39.572;2.652;2023-05-07T09:19:37;24.01;50.14
68450;SHT30;67758;39.572;2.652;2023-05-07T09:22:04;24.25;50.16
68450;SHT30;67758;39.572;2.652;2023-05-07T09:24:49;24.18;51.25
68450;SHT30;67758;39.572;2.652;2023-05-07T09:27:16;24.16;52.90
68450;SHT30;67758;39.572;2.652;2023-05-07T09:29:43;24.28;54.02
68450;SHT30;67758;39.572;2.652;2023-05-07T09:32:10;24.32;53.79
68450;SHT30;67758;39.572;2.652;2023-05-07T09:34:36;24.49;52.49
68450;SHT30;67758;39.572;2.652;2023-05-07T09:37:02;24.55;51.70
68450;SHT30;67758;39.572;2.652;2023-05-07T09:39:39;24.61;51.42
68450;SHT30;67758;39.572;2.652;2023-05-07T09:42:06;24.65;50.76
68450;SHT30;67758;39.572;2.652;2023-05-07T09:44:33;24.81;51.62
68450;SHT30;67758;39.572;2.652;2023-05-07T09:47:00;24.85;51.80
68450;SHT30;67758;39.572;2.652;2023-05-07T09:49:29;25.00;50.62
68450;SHT30;67758;39.572;2.652;2023-05-07T09:52:00;25.15;51.01
68450;SHT30;67758;39.572;2.652;2023-05-07T09:54:26;24.98;50.16
68450;SHT30;67758;39.572;2.652;2023-05-07T09:57:02;25.06;50.55
68450;SHT30;67758;39.572;2.652;2023-05-07T09:59:29;25.20;50.98
68450;SHT30;67758;39.572;2.652;2023-05-07T10:02:04;25.33;49.77
68450;SHT30;67758;39.572;2.652;2023-05-07T10:04:37;25.22;48.37
68450;SHT30;67758;39.572;2.652;2023-05-07T10:07:03;25.37;48.66
68450;SHT30;67758;39.572;2.652;2023-05-07T10:09:30;25.12;47.99
68450;SHT30;67758;39.572;2.652;2023-05-07T10:11:57;25.44;48.38
68450;SHT30;67758;39.572;2.652;2023-05-07T10:14:27;25.56;48.29
68450;SHT30;67758;39.572;2.652;2023-05-07T10:16:55;25.59;45.58
68450;SHT30;67758;39.572;2.652;2023-05-07T10:19:22;25.75;44.21
68450;SHT30;67758;39.572;2.652;2023-05-07T10:21:55;26.18;42.34
68450;SHT30;67758;39.572;2.652;2023-05-07T10:24:26;26.44;38.91
68450;SHT30;67758;39.572;2.652;2023-05-07T10:26:53;26.68;44.20
68450;SHT30;67758;39.572;2.652;2023-05-07T10:32:12;26.41;44.75
68450;SHT30;67758;39.572;2.652;2023-05-07T10:34:47;26.42;44.31
68450;SHT30;67758;39.572;2.652;2023-05-07T10:37:14;27.24;40.87
68450;SHT30;67758;39.572;2.652;2023-05-07T10:39:40;28.32;39.65
68450;SHT30;67758;39.572;2.652;2023-05-07T10:42:10;28.47;38.86
68450;SHT30;67758;39.572;2.652;2023-05-07T10:44:36;28.61;37.68
68450;SHT30;67758;39.572;2.652;2023-05-07T10:47:14;28.84;38.30
68450;SHT30;67758;39.572;2.652;2023-05-07T10:52:24;29.08;36.76
68450;SHT30;67758;39.572;2.652;2023-05-07T11:01:02;30.34;35.19
68450;SHT30;67758;39.572;2.652;2023-05-07T11:03:29;30.54;34.32
68450;SHT30;67758;39.572;2.652;2023-05-07T11:06:24;30.37;34.81
68450;SHT30;67758;39.572;2.652;2023-05-07T11:09:12;29.96;34.89
68450;SHT30;67758;39.572;2.652;2023-05-07T11:11:50;28.94;36.54
68450;SHT30;67758;39.572;2.652;2023-05-07T11:15:01;28.59;36.96
68450;SHT30;67758;39.572;2.652;2023-05-07T11:21:35;28.57;36.90
68450;SHT30;67758;39.572;2.652;2023-05-07T11:24:09;29.20;36.11
68450;SHT30;67758;39.572;2.652;2023-05-07T11:26:48;28.73;35.83
68450;SHT30;67758;39.572;2.652;2023-05-07T11:29:23;28.50;37.05
68450;SHT30;67758;39.572;2.652;2023-05-07T11:32:30;28.38;37.44
68450;SHT30;67758;39.572;2.652;2023-05-07T11:35:08;28.29;37.87
68450;SHT30;67758;39.572;2.652;2023-05-07T11:37:35;28.45;37.90
68450;SHT30;67758;39.572;2.652;2023-05-07T11:40:07;28.05;38.63
68450;SHT30;67758;39.572;2.652;2023-05-07T11:49:36;26.49;41.46
68450;SHT30;67758;39.572;2.652;2023-05-07T11:52:30;26.21;41.69
68450;SHT30;67758;39.572;2.652;2023-05-07T11:55:30;25.90;42.39
68450;SHT30;67758;39.572;2.652;2023-05-07T11:58:02;25.71;43.58
68450;SHT30;67758;39.572;2.652;2023-05-07T12:00:50;25.44;44.60
68450;SHT30;67758;39.572;2.652;2023-05-07T12:03:55;25.20;46.20
68450;SHT30;67758;39.572;2.652;2023-05-07T12:06:38;24.82;51.33
68450;SHT30;67758;39.572;2.652;2023-05-07T12:09:12;24.55;50.92
68450;SHT30;67758;39.572;2.652;2023-05-07T12:11:56;24.38;52.00
68450;SHT30;67758;39.572;2.652;2023-05-07T12:14:50;24.01;52.76
68450;SHT30;67758;39.572;2.652;2023-05-07T12:17:31;23.92;52.97
68450;SHT30;67758;39.572;2.652;2023-05-07T12:19:57;23.87;51.34
68450;SHT30;67758;39.572;2.652;2023-05-07T12:22:30;23.84;49.60
68450;SHT30;67758;39.572;2.652;2023-05-07T12:25:04;23.94;48.69
68450;SHT30;67758;39.572;2.652;2023-05-07T12:27:40;24.07;48.67
68450;SHT30;67758;39.572;2.652;2023-05-07T12:30:29;24.14;48.16
68450;SHT30;67758;39.572;2.652;2023-05-07T12:33:01;24.01;48.77
68450;SHT30;67758;39.572;2.652;2023-05-07T12:35:48;23.90;49.77
68450;SHT30;67758;39.572;2.652;2023-05-07T12:38:19;23.98;52.33
68450;SHT30;67758;39.572;2.652;2023-05-07T12:40:47;23.76;55.16
68450;SHT30;67758;39.572;2.652;2023-05-07T12:43:32;23.11;62.45
68450;SHT30;67758;39.572;2.652;2023-05-07T12:46:05;22.74;65.03
68450;SHT30;67758;39.572;2.652;2023-05-07T12:48:33;22.67;65.46
68450;SHT30;67758;39.572;2.652;2023-05-07T12:51:01;22.85;64.49
68450;SHT30;67758;39.572;2.652;2023-05-07T12:53:28;22.95;62.92
68450;SHT30;67758;39.572;2.652;2023-05-07T12:55:56;23.02;62.72
68450;SHT30;67758;39.572;2.652;2023-05-07T12:58:30;23.84;58.54
68450;SHT30;67758;39.572;2.652;2023-05-07T13:01:00;24.64;56.23
68450;SHT30;67758;39.572;2.652;2023-05-07T13:03:31;25.05;53.45
68450;SHT30;67758;39.572;2.652;2023-05-07T13:06:06;25.57;52.35
68450;SHT30;67758;39.572;2.652;2023-05-07T13:08:35;27.06;48.07
68450;SHT30;67758;39.572;2.652;2023-05-07T13:11:03;28.46;44.60
68450;SHT30;67758;39.572;2.652;2023-05-07T13:13:36;28.20;45.18
68450;SHT30;67758;39.572;2.652;2023-05-07T13:16:04;27.91;44.83
68450;SHT30;67758;39.572;2.652;2023-05-07T13:18:32;27.82;44.22
68450;SHT30;67758;39.572;2.652;2023-05-07T13:20:59;27.34;44.88
68450;SHT30;67758;39.572;2.652;2023-05-07T13:23:28;29.06;41.73
68450;SHT30;67758;39.572;2.652;2023-05-07T13:25:54;30.80;38.78
68450;SHT30;67758;39.572;2.652;2023-05-07T13:28:20;30.91;38.23
68450;SHT30;67758;39.572;2.652;2023-05-07T13:30:46;30.13;39.67
68450;SHT30;67758;39.572;2.652;2023-05-07T13:33:12;30.36;39.36
68450;SHT30;67758;39.572;2.652;2023-05-07T13:35:40;31.01;38.91
68450;SHT30;67758;39.572;2.652;2023-05-07T13:38:07;31.41;38.17
68450;SHT30;67758;39.572;2.652;2023-05-07T13:40:35;29.90;42.45
68450;SHT30;67758;39.572;2.652;2023-05-07T13:43:05;28.96;43.97
68450;SHT30;67758;39.572;2.652;2023-05-07T13:45:31;28.60;44.54
68450;SHT30;67758;39.572;2.652;2023-05-07T13:47:57;27.82;46.08
68450;SHT30;67758;39.572;2.652;2023-05-07T13:50:23;28.38;46.43
68450;SHT30;67758;39.572;2.652;2023-05-07T13:52:50;28.38;46.71
68450;SHT30;67758;39.572;2.652;2023-05-07T13:55:20;28.57;45.98
68450;SHT30;67758;39.572;2.652;2023-05-07T13:57:47;28.90;45.46
68450;SHT30;67758;39.572;2.652;2023-05-07T14:00:14;29.51;44.82
68450;SHT30;67758;39.572;2.652;2023-05-07T14:02:40;29.65;44.04
68450;SHT30;67758;39.572;2.652;2023-05-07T14:05:07;29.93;43.23
68450;SHT30;67758;39.572;2.652;2023-05-07T14:07:33;30.13;42.77
68450;SHT30;67758;39.572;2.652;2023-05-07T14:09:59;30.29;41.19
68450;SHT30;67758;39.572;2.652;2023-05-07T14:12:25;29.63;42.66
68450;SHT30;67758;39.572;2.652;2023-05-07T14:14:50;29.08;42.39
68450;SHT30;67758;39.572;2.652;2023-05-07T14:17:19;28.81;44.02
68450;SHT30;67758;39.572;2.652;2023-05-07T14:19:45;29.48;41.87
68450;SHT30;67758;39.572;2.652;2023-05-07T14:22:13;28.93;43.11
68450;SHT30;67758;39.572;2.652;2023-05-07T14:24:39;30.33;40.85
68450;SHT30;67758;39.572;2.652;2023-05-07T14:27:05;30.91;39.88
68450;SHT30;67758;39.572;2.652;2023-05-07T14:29:31;31.41;38.45
68450;SHT30;67758;39.572;2.652;2023-05-07T14:31:56;30.77;39.85
68450;SHT30;67758;39.572;2.652;2023-05-07T14:34:22;31.62;39.75
68450;SHT30;67758;39.572;2.652;2023-05-07T14:36:48;31.34;40.84
68450;SHT30;67758;39.572;2.652;2023-05-07T14:39:13;30.50;42.23
68450;SHT30;67758;39.572;2.652;2023-05-07T14:41:39;30.85;40.65
68450;SHT30;67758;39.572;2.652;2023-05-07T14:44:04;30.33;39.70
68450;SHT30;67758;39.572;2.652;2023-05-07T14:46:30;30.22;39.53
68450;SHT30;67758;39.572;2.652;2023-05-07T14:48:57;29.51;40.71
68450;SHT30;67758;39.572;2.652;2023-05-07T14:51:22;28.61;42.93
68450;SHT30;67758;39.572;2.652;2023-05-07T14:53:50;28.52;42.39
68450;SHT30;67758;39.572;2.652;2023-05-07T14:56:16;28.52;42.95
68450;SHT30;67758;39.572;2.652;2023-05-07T14:58:43;28.49;42.68
68450;SHT30;67758;39.572;2.652;2023-05-07T15:01:08;28.26;42.09
68450;SHT30;67758;39.572;2.652;2023-05-07T15:03:34;27.68;42.58
68450;SHT30;67758;39.572;2.652;2023-05-07T15:06:00;27.11;44.45
68450;SHT30;67758;39.572;2.652;2023-05-07T15:08:26;26.86;44.84
68450;SHT30;67758;39.572;2.652;2023-05-07T15:10:51;26.60;44.88
68450;SHT30;67758;39.572;2.652;2023-05-07T15:13:17;26.66;45.20
68450;SHT30;67758;39.572;2.652;2023-05-07T15:15:44;26.56;45.12
68450;SHT30;67758;39.572;2.652;2023-05-07T15:18:10;26.89;45.09
68450;SHT30;67758;39.572;2.652;2023-05-07T15:20:36;27.20;44.26
68450;SHT30;67758;39.572;2.652;2023-05-07T15:23:02;27.61;43.62
68450;SHT30;67758;39.572;2.652;2023-05-07T15:25:30;28.83;41.53
68450;SHT30;67758;39.572;2.652;2023-05-07T15:27:58;30.12;39.21
68450;SHT30;67758;39.572;2.652;2023-05-07T15:30:23;30.57;38.49
68450;SHT30;67758;39.572;2.652;2023-05-07T15:32:49;30.90;38.14
68450;SHT30;67758;39.572;2.652;2023-05-07T15:35:16;29.90;39.27
68450;SHT30;67758;39.572;2.652;2023-05-07T15:37:42;28.73;41.54
68450;SHT30;67758;39.572;2.652;2023-05-07T15:40:08;28.77;41.64
68450;SHT30;67758;39.572;2.652;2023-05-07T15:42:36;28.32;42.44
68450;SHT30;67758;39.572;2.652;2023-05-07T15:45:04;27.99;43.23
68450;SHT30;67758;39.572;2.652;2023-05-07T15:47:32;27.71;43.84
68450;SHT30;67758;39.572;2.652;2023-05-07T15:49:58;27.48;44.39
68450;SHT30;67758;39.572;2.652;2023-05-07T15:52:24;27.23;45.13
68450;SHT30;67758;39.572;2.652;2023-05-07T15:54:50;26.83;45.82
68450;SHT30;67758;39.572;2.652;2023-05-07T15:57:15;26.73;46.01
68450;SHT30;67758;39.572;2.652;2023-05-07T15:59:41;26.59;46.41
68450;SHT30;67758;39.572;2.652;2023-05-07T16:02:07;26.45;46.86
68450;SHT30;67758;39.572;2.652;2023-05-07T16:04:33;26.44;47.05
68450;SHT30;67758;39.572;2.652;2023-05-07T16:06:59;26.46;46.98